Time;durP1;ratioP1;P1;durP2;ratioP2;P2;SDS_P1;SDS_P2;PMS_P1;PMS_P2;Temp;Humidity;BMP_temperature;BMP_pressure;BME280_temperature;BME280_humidity;BME280_pressure;Samples;Min_cycle;Max_cycle;Signal;HPM_P1;HPM_P2
2021/03/06 00:11:50;;;;;;;;;;;;;;;-2.76;93.70;93925.09;1374960;41;21792;31
2021/03/06 00:26:57;;;;;;;;;;;;;;;-3.01;93.64;93931.91;1393932;40;20284;31
2021/03/06 00:28:11;;;;;;;;;;;;;;;-3.11;93.37;93940.84;1400372;40;20357;31
2021/03/06 00:29:25;;;;;;;;;;;;;;;-3.10;93.30;93939.75;1396558;40;20264;31
2021/03/06 00:30:29;;;;;;;;;;;;;;;-3.12;93.43;93926.22;1383790;40;21182;31
2021/03/06 00:31:43;;;;;;;;;;;;;;;-3.11;92.12;93932.25;1395603;40;20407;31
2021/03/06 00:32:47;;;;;;;;;;;;;;;-3.10;92.10;93926.69;1414080;39;21422;31
2021/03/06 00:40:33;;;;;;;;;;;;;;;-3.19;93.07;93931.16;1401821;40;20197;31
2021/03/06 00:43:33;;;;;;;;;;;;;;;-3.18;93.08;93929.31;1401006;40;21258;31
2021/03/06 00:44:47;;;;;;;;;;;;;;;-3.20;93.09;93928.88;1396936;40;21197;31
2021/03/06 00:57:54;;;;;;;;;;;;;;;-3.36;93.54;93921.47;1406111;40;20220;31
2021/03/06 00:59:12;;;;;;;;;;;;;;;-3.33;94.32;93926.09;1396332;40;20255;31
2021/03/06 01:01:54;;;;;;;;;;;;;;;-3.35;94.10;93927.47;1398691;40;21276;31
2021/03/06 01:04:37;;;;;;;;;;;;;;;-3.37;93.74;93927.78;1416008;39;20200;31
2021/03/06 01:05:51;;;;;;;;;;;;;;;-3.40;95.21;93927.63;1415976;40;21079;31
2021/03/06 01:06:55;;;;;;;;;;;;;;;-3.39;94.61;93932.53;1410446;40;22641;31
2021/03/06 01:08:09;;;;;;;;;;;;;;;-3.35;94.67;93922.25;1410767;39;21226;31
2021/03/06 01:09:35;;;;;;;;;;;;;;;-3.35;94.36;93932.69;1416214;39;20215;31
2021/03/06 01:16:23;;;;;;;;;;;;;;;-3.42;93.79;93921.94;1398763;40;20217;31
2021/03/06 01:18:41;;;;;;;;;;;;;;;-3.48;93.45;93920.56;1402249;40;20259;31
2021/03/06 01:19:56;;;;;;;;;;;;;;;-3.36;92.86;93925.94;1402458;40;20209;31
2021/03/06 01:21:10;;;;;;;;;;;;;;;-3.50;93.47;93922.72;1406684;40;20265;31
2021/03/06 01:22:24;;;;;;;;;;;;;;;-3.56;94.02;93920.25;1414357;39;20220;31
2021/03/06 01:23:29;;;;;;;;;;;;;;;-3.53;94.04;93921.47;1420880;39;20234;31
2021/03/06 01:24:43;;;;;;;;;;;;;;;-3.56;94.15;93922.06;1404346;40;21114;31
2021/03/06 01:27:52;;;;;;;;;;;;;;;-3.51;93.64;93915.94;1427107;39;20233;31
2021/03/06 01:28:59;;;;;;;;;;;;;;;-3.44;93.67;93918.84;1435328;39;20358;31
2021/03/06 01:30:14;;;;;;;;;;;;;;;-3.57;92.92;93921.31;1429212;39;20294;31
2021/03/06 01:31:18;;;;;;;;;;;;;;;-3.57;93.69;93921.31;1428923;39;20329;31
2021/03/06 01:32:32;;;;;;;;;;;;;;;-3.56;92.64;93912.41;1409844;39;20211;31
2021/03/06 01:33:46;;;;;;;;;;;;;;;-3.57;93.41;93920.53;1415652;39;21263;31
2021/03/06 01:35:00;;;;;;;;;;;;;;;-3.61;94.12;93917.75;1428750;39;20199;31
2021/03/06 01:36:14;;;;;;;;;;;;;;;-3.61;94.40;93914.38;1430491;39;20310;31
2021/03/06 01:37:28;;;;;;;;;;;;;;;-3.62;93.38;93916.25;1416577;39;20208;31
2021/03/06 01:38:43;;;;;;;;;;;;;;;-3.65;93.80;93919.44;1419010;39;20287;31
2021/03/06 01:39:57;;;;;;;;;;;;;;;-3.79;93.41;93911.00;1420314;39;21081;31
2021/03/06 01:41:11;;;;;;;;;;;;;;;-3.76;93.87;93913.00;1416549;39;20223;31
2021/03/06 01:42:25;;;;;;;;;;;;;;;-3.81;94.17;93910.53;1425772;39;20266;31
2021/03/06 01:43:39;;;;;;;;;;;;;;;-3.84;94.14;93911.91;1412681;39;20210;31
2021/03/06 01:46:11;;;;;;;;;;;;;;;-3.86;93.97;93908.09;1418861;39;20242;31
2021/03/06 01:47:25;;;;;;;;;;;;;;;-3.93;94.49;93903.28;1417650;39;20204;31
2021/03/06 01:48:39;;;;;;;;;;;;;;;-3.89;93.66;93896.41;1407466;40;20253;31
2021/03/06 01:49:53;;;;;;;;;;;;;;;-3.90;94.22;93894.09;1408972;40;21401;31
2021/03/06 01:51:07;;;;;;;;;;;;;;;-3.91;94.10;93898.53;1396130;40;20424;31
2021/03/06 01:52:09;;;;;;;;;;;;;;;-3.79;93.93;93897.94;1390343;40;21339;31
2021/03/06 01:56:30;;;;;;;;;;;;;;;-3.90;94.40;93888.87;1397834;40;21273;31
2021/03/06 01:57:44;;;;;;;;;;;;;;;-3.97;94.58;93902.38;1403703;40;20189;31
2021/03/06 01:58:48;;;;;;;;;;;;;;;-3.95;94.31;93886.38;1399103;40;22289;31
2021/03/06 02:01:50;;;;;;;;;;;;;;;-3.94;94.28;93890.56;1403216;40;21162;31
2021/03/06 02:04:00;;;;;;;;;;;;;;;-4.02;93.87;93886.84;1399953;40;22656;31
2021/03/06 02:05:04;;;;;;;;;;;;;;;-4.02;93.88;93884.25;1409482;40;21192;31
2021/03/06 02:08:28;;;;;;;;;;;;;;;-4.03;93.72;93895.00;1400089;40;20233;31
2021/03/06 02:09:42;;;;;;;;;;;;;;;-4.14;93.25;93892.66;1401725;40;21710;31
2021/03/06 02:10:56;;;;;;;;;;;;;;;-4.12;93.45;93894.97;1397483;40;20298;31
2021/03/06 02:12:10;;;;;;;;;;;;;;;-4.10;93.92;93898.03;1413413;39;20224;31
2021/03/06 02:13:24;;;;;;;;;;;;;;;-4.10;93.79;93895.44;1397412;40;20229;31
2021/03/06 02:14:34;;;;;;;;;;;;;;;-4.24;93.77;93897.41;1388943;40;22716;31
2021/03/06 02:18:58;;;;;;;;;;;;;;;-4.21;94.01;93902.78;1405583;39;20240;31
2021/03/06 02:20:12;;;;;;;;;;;;;;;-4.21;94.72;93899.41;1398600;40;21380;31
2021/03/06 02:21:26;;;;;;;;;;;;;;;-4.20;94.90;93900.94;1408180;40;21317;31
2021/03/06 02:25:33;;;;;;;;;;;;;;;-4.25;94.13;93898.47;1413927;39;20199;31
2021/03/06 02:26:50;;;;;;;;;;;;;;;-4.21;94.94;93902.78;1408488;39;20208;31
2021/03/06 02:28:05;;;;;;;;;;;;;;;-4.26;94.95;93899.53;1406112;40;20201;31
2021/03/06 02:29:20;;;;;;;;;;;;;;;-4.21;94.29;93900.19;1402237;40;20233;31
2021/03/06 02:30:34;;;;;;;;;;;;;;;-4.20;94.13;93900.94;1399698;40;21345;31
2021/03/06 02:31:39;;;;;;;;;;;;;;;-4.22;94.82;93895.25;1393759;40;21359;31
2021/03/06 02:32:54;;;;;;;;;;;;;;;-4.15;93.66;93900.78;1408719;40;20241;31
2021/03/06 02:34:09;;;;;;;;;;;;;;;-4.18;93.62;93901.41;1416232;39;20298;31
2021/03/06 02:37:00;;;;;;;;;;;;;;;-4.18;92.27;93893.56;1453328;39;20266;31
2021/03/06 02:40:38;;;;;;;;;;;;;;;-4.30;93.39;93896.78;1429254;39;21231;31
2021/03/06 02:41:52;;;;;;;;;;;;;;;-4.32;93.29;93893.69;1417843;39;20223;31
2021/03/06 02:47:51;;;;;;;;;;;;;;;-4.45;94.08;93892.72;1470000;39;20607;31
2021/03/06 02:49:08;;;;;;;;;;;;;;;-4.44;94.13;93894.25;1426228;39;20231;31
2021/03/06 02:51:33;;;;;;;;;;;;;;;-4.52;93.84;93891.59;1465493;40;20689;31
2021/03/06 02:53:39;;;;;;;;;;;;;;;-4.41;93.84;93891.03;1422549;39;20312;31
2021/03/06 02:54:53;;;;;;;;;;;;;;;-4.49;93.00;93889.19;1428798;39;20288;31
2021/03/06 02:58:13;;;;;;;;;;;;;;;-4.52;93.54;93886.38;1415229;39;20265;31
2021/03/06 03:05:38;;;;;;;;;;;;;;;-4.57;93.85;93876.88;1477582;39;22618;31
2021/03/06 03:06:52;;;;;;;;;;;;;;;-4.52;94.04;93875.97;1416861;39;21267;31
2021/03/06 03:16:51;;;;;;;;;;;;;;;-4.61;93.35;93874.13;1437196;39;20299;31
2021/03/06 03:19:15;;;;;;;;;;;;;;;-4.60;92.82;93867.81;1481388;39;21742;31
2021/03/06 03:20:31;;;;;;;;;;;;;;;-4.70;93.79;93870.69;1430984;39;21113;31
2021/03/06 03:21:35;;;;;;;;;;;;;;;-4.79;93.44;93867.25;1425506;39;20258;31
2021/03/06 03:25:25;;;;;;;;;;;;;;;-4.85;92.99;93868.47;1490327;39;21661;31
2021/03/06 03:26:41;;;;;;;;;;;;;;;-4.78;92.58;93863.63;1425313;39;20376;31
2021/03/06 03:27:55;;;;;;;;;;;;;;;-4.83;92.42;93868.94;1404905;40;20224;31
2021/03/06 03:29:09;;;;;;;;;;;;;;;-4.89;92.60;93867.53;1410726;40;20210;31
2021/03/06 03:30:23;;;;;;;;;;;;;;;-4.96;93.81;93867.97;1432800;39;22527;31
2021/03/06 03:33:15;;;;;;;;;;;;;;;-4.97;93.96;93869.03;1422131;39;20231;31
2021/03/06 03:34:29;;;;;;;;;;;;;;;-5.01;94.25;93869.94;1420727;39;21345;31
2021/03/06 03:37:28;;;;;;;;;;;;;;;-5.13;94.65;93868.66;1495161;39;20253;31
2021/03/06 03:38:43;;;;;;;;;;;;;;;-5.04;94.07;93862.72;1433660;39;20245;31
2021/03/06 03:42:54;;;;;;;;;;;;;;;-5.13;93.16;93871.25;1436421;39;21156;31
2021/03/06 03:44:07;;;;;;;;;;;;;;;-5.19;92.47;93866.47;1427985;39;20213;31
2021/03/06 03:45:12;;;;;;;;;;;;;;;-5.19;93.36;93869.06;1422124;39;21472;31
2021/03/06 03:46:26;;;;;;;;;;;;;;;-5.13;93.29;93868.66;1420432;39;20207;31
2021/03/06 03:47:51;;;;;;;;;;;;;;;-5.15;93.43;93870.78;1430013;39;20203;31
2021/03/06 03:49:05;;;;;;;;;;;;;;;-5.17;93.18;93872.16;1422062;39;21143;31
2021/03/06 03:50:19;;;;;;;;;;;;;;;-5.16;93.18;93876.28;1407837;40;20232;31
2021/03/06 03:53:03;;;;;;;;;;;;;;;-5.21;93.70;93879.78;1400182;40;20232;31
2021/03/06 03:54:17;;;;;;;;;;;;;;;-5.24;93.67;93882.22;1397209;40;20687;31
2021/03/06 03:57:00;;;;;;;;;;;;;;;-5.06;94.08;93878.63;1392437;40;20193;31
2021/03/06 04:01:20;;;;;;;;;;;;;;;-5.23;93.44;93876.69;1441105;40;21787;31
2021/03/06 04:06:18;;;;;;;;;;;;;;;-5.44;93.81;93876.44;1456950;40;20213;31
2021/03/06 04:07:33;;;;;;;;;;;;;;;-5.47;93.80;93882.22;1412731;39;20251;31
2021/03/06 04:10:47;;;;;;;;;;;;;;;-5.41;93.87;93880.25;1433707;39;20217;31
2021/03/06 04:14:39;;;;;;;;;;;;;;;-5.34;94.20;93886.59;1485351;39;21707;31
2021/03/06 04:15:53;;;;;;;;;;;;;;;-5.38;94.65;93888.25;1416434;39;20232;31
2021/03/06 04:17:08;;;;;;;;;;;;;;;-5.35;94.65;93886.91;1429257;39;20230;31
2021/03/06 04:20:00;;;;;;;;;;;;;;;-5.35;93.00;93892.12;1474511;39;20641;31
2021/03/06 04:21:14;;;;;;;;;;;;;;;-5.41;92.91;93895.91;1419403;39;20280;31
2021/03/06 04:22:28;;;;;;;;;;;;;;;-5.41;93.36;93891.44;1416104;39;20191;31
2021/03/06 04:23:44;;;;;;;;;;;;;;;-5.40;93.49;93894.81;1424703;39;20211;31
2021/03/06 04:24:58;;;;;;;;;;;;;;;-5.45;92.74;93890.50;1422757;39;20199;31
2021/03/06 04:29:48;;;;;;;;;;;;;;;-5.41;93.15;93888.84;1424521;39;20619;31
2021/03/06 04:34:01;;;;;;;;;;;;;;;-5.53;94.36;93886.03;1414753;39;21301;31
2021/03/06 04:38:21;;;;;;;;;;;;;;;-5.41;92.19;93882.88;1464699;40;20271;31
2021/03/06 04:47:09;;;;;;;;;;;;;;;-5.55;92.65;93884.75;1429752;39;21204;31
2021/03/06 04:48:23;;;;;;;;;;;;;;;-5.60;92.83;93886.41;1436636;39;20199;31
2021/03/06 04:59:57;;;;;;;;;;;;;;;-5.73;93.17;93891.69;1499512;39;21009;31
2021/03/06 05:01:12;;;;;;;;;;;;;;;-5.80;93.02;93886.88;1425568;39;21849;31
2021/03/06 05:02:19;;;;;;;;;;;;;;;-5.83;93.10;93896.03;1432074;39;20234;31
2021/03/06 05:15:49;;;;;;;;;;;;;;;-5.90;91.64;93892.28;1314141;39;20214;31
2021/03/06 05:18:31;;;;;;;;;;;;;;;-5.91;91.00;93888.16;1486876;39;20187;31
2021/03/06 05:21:13;;;;;;;;;;;;;;;-6.01;91.24;93891.78;1493342;39;20280;31
2021/03/06 05:29:35;;;;;;;;;;;;;;;-6.06;91.25;93897.06;1443150;39;20237;31
2021/03/06 05:30:38;;;;;;;;;;;;;;;-6.18;91.19;93896.81;1430101;39;20211;31
2021/03/06 05:33:10;;;;;;;;;;;;;;;-5.97;92.99;93903.16;1418691;39;20242;31
2021/03/06 05:34:14;;;;;;;;;;;;;;;-6.06;92.52;93899.66;1425230;39;21115;31
2021/03/06 05:42:04;;;;;;;;;;;;;;;-5.91;92.37;93894.13;1482245;39;22301;31
2021/03/06 05:43:08;;;;;;;;;;;;;;;-5.85;91.00;93897.38;1425080;39;23045;31
2021/03/06 06:01:05;;;;;;;;;;;;;;;-6.06;90.72;93901.50;1495288;39;20202;31
2021/03/06 06:14:11;;;;;;;;;;;;;;;-6.27;91.76;93909.75;1491649;39;20207;31
2021/03/06 06:22:29;;;;;;;;;;;;;;;-6.29;91.97;93924.09;1486331;39;20272;31
2021/03/06 06:32:59;;;;;;;;;;;;;;;-6.14;91.86;93924.56;1500010;39;20587;31
2021/03/06 06:34:14;;;;;;;;;;;;;;;-6.03;92.18;93929.56;1423170;39;20306;31
2021/03/06 06:35:28;;;;;;;;;;;;;;;-6.00;91.54;93929.75;1423754;39;21398;31
2021/03/06 06:36:30;;;;;;;;;;;;;;;-6.02;90.96;93931.09;1416804;39;22638;31
2021/03/06 06:45:55;;;;;;;;;;;;;;;-5.54;88.99;93930.56;1486195;39;22764;31
2021/03/06 06:47:19;;;;;;;;;;;;;;;-5.51;88.23;93930.00;1424650;39;20199;31
2021/03/06 06:57:05;;;;;;;;;;;;;;;-5.21;87.85;93949.37;1500335;39;20206;31
2021/03/06 06:58:09;;;;;;;;;;;;;;;-5.16;87.93;93939.59;1431069;39;20210;31
2021/03/06 07:00:47;;;;;;;;;;;;;;;-5.07;88.07;93944.88;1419786;39;20195;31
2021/03/06 07:02:01;;;;;;;;;;;;;;;-5.06;86.72;93935.97;1433213;39;21137;31
2021/03/06 07:17:05;;;;;;;;;;;;;;;-4.84;85.50;93948.22;1482871;39;20187;31
2021/03/06 07:19:57;;;;;;;;;;;;;;;-4.72;87.50;93943.25;1428119;39;21101;31
2021/03/06 07:25:59;;;;;;;;;;;;;;;-4.50;85.49;93952.09;1482336;39;20212;31
2021/03/06 07:30:05;;;;;;;;;;;;;;;-4.44;85.53;93950.88;1482576;39;20172;31
2021/03/06 07:32:47;;;;;;;;;;;;;;;-4.34;86.34;93950.63;1427344;39;20226;31
2021/03/06 07:34:01;;;;;;;;;;;;;;;-4.30;85.72;93948.97;1419375;39;20251;31
2021/03/06 07:37:03;;;;;;;;;;;;;;;-4.25;85.30;93950.66;1438658;39;20652;31
2021/03/06 07:38:17;;;;;;;;;;;;;;;-4.17;84.82;93950.69;1422651;39;20221;31
2021/03/06 07:39:31;;;;;;;;;;;;;;;-4.09;84.70;93947.31;1426184;39;21103;31
2021/03/06 07:46:00;;;;;;;;;;;;;;;-3.87;85.52;93950.91;1490769;39;20230;31
2021/03/06 07:48:42;;;;;;;;;;;;;;;-3.84;83.90;93958.16;1485887;39;20606;31
2021/03/06 07:49:56;;;;;;;;;;;;;;;-3.86;84.09;93952.47;1424483;39;20389;31
2021/03/06 08:01:28;;;;;;;;;;;;;;;-3.58;84.27;93971.25;1482113;39;20219;31
2021/03/06 08:05:45;;;;;;;;;;;;;;;-3.61;84.00;93961.41;1426990;39;20234;31
2021/03/06 08:08:56;;;;;;;;;;;;;;;-3.30;84.48;93971.75;1442146;39;21136;31
2021/03/06 08:10:10;;;;;;;;;;;;;;;-3.21;83.25;93963.91;1419127;39;21311;31
2021/03/06 08:12:43;;;;;;;;;;;;;;;-3.20;83.44;93965.47;1440063;39;20245;31
2021/03/06 08:13:53;;;;;;;;;;;;;;;-3.17;83.15;93965.59;1406528;39;21210;31
2021/03/06 08:14:57;;;;;;;;;;;;;;;-3.02;84.21;93955.75;1422974;39;21049;31
2021/03/06 08:20:23;;;;;;;;;;;;;;;-3.04;81.91;93976.97;1442617;39;22666;31
2021/03/06 08:21:37;;;;;;;;;;;;;;;-3.01;82.90;93965.91;1435750;39;20194;31
2021/03/06 08:25:30;;;;;;;;;;;;;;;-2.76;85.11;93974.81;1422521;39;20191;31
2021/03/06 08:26:54;;;;;;;;;;;;;;;-2.75;82.78;93976.34;1428222;39;21115;31
2021/03/06 08:28:08;;;;;;;;;;;;;;;-2.82;81.97;93971.56;1434248;39;20248;31
2021/03/06 08:29:25;;;;;;;;;;;;;;;-2.84;81.53;93968.50;1431864;39;22755;31
2021/03/06 08:31:37;;;;;;;;;;;;;;;-2.49;81.50;93960.59;1438451;39;20242;31
2021/03/06 08:35:00;;;;;;;;;;;;;;;-2.28;81.51;93965.94;1449707;39;20232;31
2021/03/06 08:36:14;;;;;;;;;;;;;;;-2.25;81.45;93967.13;1434142;39;21205;31
2021/03/06 08:37:28;;;;;;;;;;;;;;;-2.22;82.62;93969.91;1423449;39;20242;31
2021/03/06 08:38:42;;;;;;;;;;;;;;;-2.12;82.69;93966.16;1422283;39;20243;31
2021/03/06 08:39:57;;;;;;;;;;;;;;;-2.03;80.36;93964.28;1418751;39;20241;31
2021/03/06 08:41:11;;;;;;;;;;;;;;;-2.05;80.19;93966.44;1435836;39;22509;31
2021/03/06 08:42:25;;;;;;;;;;;;;;;-2.07;80.08;93963.34;1416235;39;21285;31
2021/03/06 08:43:29;;;;;;;;;;;;;;;-2.04;80.64;93968.75;1424059;39;22786;31
2021/03/06 08:44:43;;;;;;;;;;;;;;;-2.06;81.11;93959.69;1428509;39;20214;31
2021/03/06 08:45:57;;;;;;;;;;;;;;;-2.04;81.18;93962.75;1440270;39;21288;31
2021/03/06 08:47:11;;;;;;;;;;;;;;;-1.89;81.05;93977.94;1429535;39;21230;31
2021/03/06 08:48:25;;;;;;;;;;;;;;;-1.85;81.08;93965.72;1428209;39;21596;31
2021/03/06 08:49:31;;;;;;;;;;;;;;;-2.01;79.80;93964.75;1427061;39;21267;31
2021/03/06 08:50:35;;;;;;;;;;;;;;;-1.92;81.26;93957.59;1431942;39;20527;31
2021/03/06 08:52:52;;;;;;;;;;;;;;;-1.93;80.40;93961.31;1444072;39;20204;31
2021/03/06 08:53:57;;;;;;;;;;;;;;;-1.87;81.30;93956.66;1423340;39;20215;31
2021/03/06 08:55:11;;;;;;;;;;;;;;;-1.79;79.69;93964.47;1429770;39;20204;31
2021/03/06 08:56:25;;;;;;;;;;;;;;;-1.59;79.96;93964.81;1422377;39;20277;31
2021/03/06 08:57:39;;;;;;;;;;;;;;;-1.44;79.60;93963.50;1426868;39;21213;31
2021/03/06 08:58:53;;;;;;;;;;;;;;;-1.39;78.18;93956.22;1425054;39;20210;31
2021/03/06 09:00:07;;;;;;;;;;;;;;;-1.35;78.99;93956.34;1427618;39;21147;31
2021/03/06 09:01:13;;;;;;;;;;;;;;;-1.57;77.63;93963.41;1417067;39;20234;31
2021/03/06 09:04:45;;;;;;;;;;;;;;;-1.34;78.58;93963.87;1430877;39;20293;31
2021/03/06 09:05:50;;;;;;;;;;;;;;;-1.25;76.72;93955.19;1418741;39;20231;31
2021/03/06 09:08:12;;;;;;;;;;;;;;;-1.17;78.40;93956.97;1422097;39;20223;31
2021/03/06 09:09:26;;;;;;;;;;;;;;;-1.18;77.48;93961.47;1412377;40;20234;31
2021/03/06 09:10:40;;;;;;;;;;;;;;;-1.23;77.32;93959.00;1422700;39;20214;31
2021/03/06 09:11:54;;;;;;;;;;;;;;;-1.24;77.60;93960.09;1416584;40;20192;31
2021/03/06 09:13:11;;;;;;;;;;;;;;;-1.12;78.48;93957.56;1404405;40;21270;31
2021/03/06 09:14:26;;;;;;;;;;;;;;;-1.02;76.59;93956.37;1417582;39;20336;31
2021/03/06 09:15:40;;;;;;;;;;;;;;;-1.06;77.34;93955.50;1414611;39;20204;31
2021/03/06 09:16:54;;;;;;;;;;;;;;;-1.11;77.39;93963.56;1428607;39;20262;31
2021/03/06 09:18:09;;;;;;;;;;;;;;;-1.06;76.54;93963.38;1440248;39;20284;31
2021/03/06 09:19:27;;;;;;;;;;;;;;;-1.10;77.26;93955.38;1433994;39;23231;31
2021/03/06 09:20:41;;;;;;;;;;;;;;;-1.00;77.21;93950.84;1427978;39;20187;31
2021/03/06 09:21:56;;;;;;;;;;;;;;;-1.05;76.92;93957.03;1430213;39;20278;31
2021/03/06 09:23:10;;;;;;;;;;;;;;;-0.99;75.32;93965.47;1421626;39;20202;31
2021/03/06 09:24:28;;;;;;;;;;;;;;;-1.01;75.88;93968.41;1416209;39;20244;31
2021/03/06 09:25:42;;;;;;;;;;;;;;;-0.98;75.19;93964.37;1419996;39;21264;31
2021/03/06 09:26:51;;;;;;;;;;;;;;;-0.85;75.90;93965.97;1417270;39;20203;31
2021/03/06 09:27:55;;;;;;;;;;;;;;;-0.80;75.88;93968.41;1408131;40;22766;31
2021/03/06 09:31:25;;;;;;;;;;;;;;;-0.90;75.51;93971.44;1415234;39;20286;31
2021/03/06 09:32:32;;;;;;;;;;;;;;;-0.83;75.53;93972.44;1401604;40;20233;31
2021/03/06 09:33:40;;;;;;;;;;;;;;;-0.61;75.50;93965.31;1409641;40;21331;31
2021/03/06 09:34:45;;;;;;;;;;;;;;;-0.62;76.79;93963.75;1421241;39;20238;31
2021/03/06 09:39:24;;;;;;;;;;;;;;;-0.71;75.14;93963.84;1433957;39;22858;31
2021/03/06 09:40:35;;;;;;;;;;;;;;;-0.67;74.97;93980.47;1438292;39;20218;31
2021/03/06 09:41:49;;;;;;;;;;;;;;;-0.59;74.57;93976.25;1421797;39;21173;31
2021/03/06 09:43:03;;;;;;;;;;;;;;;-0.55;75.02;93969.25;1422186;39;21922;31
2021/03/06 09:44:18;;;;;;;;;;;;;;;-0.48;74.86;93973.97;1413350;39;20239;31
2021/03/06 09:45:42;;;;;;;;;;;;;;;-0.51;74.82;93970.91;1425202;39;21078;31
2021/03/06 09:46:48;;;;;;;;;;;;;;;-0.42;74.07;93973.44;1429196;39;21187;31
2021/03/06 09:50:19;;;;;;;;;;;;;;;-0.27;74.85;93972.81;1420647;39;21365;31
2021/03/06 09:51:37;;;;;;;;;;;;;;;-0.24;73.83;93975.88;1409977;40;20669;31
2021/03/06 09:52:41;;;;;;;;;;;;;;;-0.21;73.61;93970.75;1399599;40;20229;31
2021/03/06 09:53:53;;;;;;;;;;;;;;;-0.29;74.33;93969.75;1416412;39;20364;31
2021/03/06 09:54:57;;;;;;;;;;;;;;;-0.28;73.93;93970.50;1414264;40;21152;31
2021/03/06 09:58:23;;;;;;;;;;;;;;;-0.02;72.59;93972.84;1425006;39;21173;31
2021/03/06 10:01:05;;;;;;;;;;;;;;;0.02;72.63;93970.34;1417296;39;20765;31
2021/03/06 10:02:25;;;;;;;;;;;;;;;-0.04;73.51;93972.44;1429327;39;20695;31
2021/03/06 10:03:39;;;;;;;;;;;;;;;0.10;73.33;93964.22;1429165;39;21612;31
2021/03/06 10:04:53;;;;;;;;;;;;;;;0.03;71.93;93964.00;1413980;39;22500;31
2021/03/06 10:06:07;;;;;;;;;;;;;;;0.24;73.85;93969.91;1414920;39;21793;31
2021/03/06 10:07:23;;;;;;;;;;;;;;;0.36;74.69;93969.16;1420259;39;21049;31
2021/03/06 10:08:29;;;;;;;;;;;;;;;0.35;72.78;93963.13;1407456;40;20278;31
2021/03/06 10:09:33;;;;;;;;;;;;;;;0.24;72.92;93975.94;1423874;39;22629;31
2021/03/06 10:11:51;;;;;;;;;;;;;;;0.15;72.62;93966.63;1429685;39;21282;31
2021/03/06 10:13:05;;;;;;;;;;;;;;;0.30;71.54;93971.22;1418983;39;20247;31
2021/03/06 10:14:10;;;;;;;;;;;;;;;0.39;71.83;93966.59;1424930;39;22938;31
2021/03/06 10:16:17;;;;;;;;;;;;;;;0.49;71.75;93971.44;1428629;39;21369;31
2021/03/06 10:17:31;;;;;;;;;;;;;;;0.56;71.54;93967.47;1429239;39;20245;31
2021/03/06 10:18:45;;;;;;;;;;;;;;;0.60;70.08;93970.97;1422698;39;20255;31
2021/03/06 10:20:00;;;;;;;;;;;;;;;0.64;70.07;93971.84;1405481;40;20212;31
2021/03/06 10:21:14;;;;;;;;;;;;;;;0.76;70.96;93963.94;1409987;40;20220;31
2021/03/06 10:22:29;;;;;;;;;;;;;;;0.69;68.20;93971.63;1421242;39;20191;31
2021/03/06 10:23:44;;;;;;;;;;;;;;;0.80;71.43;93975.34;1416097;39;20191;31
2021/03/06 10:24:58;;;;;;;;;;;;;;;0.83;72.00;93969.38;1421978;39;21283;31
2021/03/06 10:26:12;;;;;;;;;;;;;;;0.96;69.47;93970.91;1431488;39;20219;31
2021/03/06 10:27:26;;;;;;;;;;;;;;;0.86;69.42;93975.88;1423301;39;20338;31
2021/03/06 10:28:40;;;;;;;;;;;;;;;0.96;70.35;93976.16;1411036;40;21138;31
2021/03/06 10:29:54;;;;;;;;;;;;;;;0.93;68.32;93971.56;1413860;39;20215;31
2021/03/06 10:31:08;;;;;;;;;;;;;;;0.96;71.01;93967.50;1421182;39;20332;31
2021/03/06 10:32:14;;;;;;;;;;;;;;;1.08;68.56;93971.97;1418737;39;20701;31
2021/03/06 10:33:28;;;;;;;;;;;;;;;1.13;67.81;93977.00;1414739;40;20242;31
2021/03/06 10:34:34;;;;;;;;;;;;;;;1.12;67.02;93981.50;1414236;40;21385;31
2021/03/06 10:35:49;;;;;;;;;;;;;;;1.06;69.64;93980.22;1397169;40;21972;31
2021/03/06 10:37:03;;;;;;;;;;;;;;;1.06;69.32;93980.22;1431973;39;20242;31
2021/03/06 10:38:09;;;;;;;;;;;;;;;1.12;70.04;93983.38;1433038;39;22969;31
2021/03/06 10:39:23;;;;;;;;;;;;;;;1.12;69.57;93980.72;1428689;39;20314;31
2021/03/06 10:40:37;;;;;;;;;;;;;;;1.15;67.05;93983.47;1423083;39;20262;31
2021/03/06 10:41:51;;;;;;;;;;;;;;;1.17;69.59;93983.88;1419089;39;20299;31
2021/03/06 10:43:05;;;;;;;;;;;;;;;1.18;69.14;93980.16;1419391;39;20222;31
2021/03/06 10:44:20;;;;;;;;;;;;;;;1.11;68.44;93982.59;1414143;39;21161;31
2021/03/06 10:45:34;;;;;;;;;;;;;;;1.24;69.57;93981.47;1419387;39;20255;31
2021/03/06 10:46:49;;;;;;;;;;;;;;;1.42;67.36;93979.31;1435451;39;21086;31
2021/03/06 10:49:09;;;;;;;;;;;;;;;1.46;67.59;93969.63;1444632;39;20182;31
2021/03/06 10:51:18;;;;;;;;;;;;;;;1.66;66.66;93982.91;1427918;39;20235;31
2021/03/06 10:54:44;;;;;;;;;;;;;;;1.70;66.80;93983.78;1444748;39;20558;31
2021/03/06 10:55:49;;;;;;;;;;;;;;;1.66;65.42;93977.66;1404882;39;20190;31
2021/03/06 10:58:03;;;;;;;;;;;;;;;1.73;69.17;93983.09;1298289;39;20219;31
2021/03/06 10:59:17;;;;;;;;;;;;;;;1.77;65.60;93991.88;1428705;39;20218;31
2021/03/06 11:00:31;;;;;;;;;;;;;;;1.84;66.19;93984.12;1433404;39;20187;31
2021/03/06 11:01:45;;;;;;;;;;;;;;;1.92;66.98;93982.44;1284328;39;20197;31
2021/03/06 11:02:56;;;;;;;;;;;;;;;1.91;66.06;93984.31;1431790;39;21094;31
2021/03/06 11:06:33;;;;;;;;;;;;;;;1.92;63.29;93977.16;1399489;40;20343;31
2021/03/06 11:07:37;;;;;;;;;;;;;;;1.79;64.13;93987.00;1419626;39;21576;31
2021/03/06 11:08:51;;;;;;;;;;;;;;;2.01;63.89;93983.81;1413883;39;20208;31
2021/03/06 11:10:05;;;;;;;;;;;;;;;2.13;66.76;93985.59;1426554;39;20592;31
2021/03/06 11:11:19;;;;;;;;;;;;;;;1.98;65.20;93984.50;1433086;39;21728;31
2021/03/06 11:12:34;;;;;;;;;;;;;;;1.88;62.46;93987.63;1431707;39;22161;31
2021/03/06 11:13:49;;;;;;;;;;;;;;;2.01;64.97;93986.44;1431158;39;20196;31
2021/03/06 11:15:04;;;;;;;;;;;;;;;2.29;66.48;93990.13;1429218;39;20261;31
2021/03/06 11:16:18;;;;;;;;;;;;;;;2.37;66.50;93984.69;1419874;39;21140;31
2021/03/06 11:17:32;;;;;;;;;;;;;;;2.44;65.58;93989.34;1417132;39;21284;31
2021/03/06 11:18:36;;;;;;;;;;;;;;;2.37;63.64;93983.88;1410429;40;21237;31
2021/03/06 11:19:50;;;;;;;;;;;;;;;2.33;64.14;93983.81;1412476;40;21660;31
2021/03/06 11:22:24;;;;;;;;;;;;;;;2.56;64.48;93981.31;1419538;39;21236;31
2021/03/06 11:24:39;;;;;;;;;;;;;;;2.31;62.10;93987.91;1231678;39;21354;31
2021/03/06 11:25:54;;;;;;;;;;;;;;;2.09;64.19;93979.47;1419573;39;21002;31
2021/03/06 11:28:36;;;;;;;;;;;;;;;2.49;65.51;93974.00;1221632;39;20550;31
2021/03/06 11:29:40;;;;;;;;;;;;;;;2.57;64.21;93974.94;1419734;39;21045;31
2021/03/06 11:31:48;;;;;;;;;;;;;;;2.63;63.22;93972.78;1444889;39;20217;31
2021/03/06 11:32:53;;;;;;;;;;;;;;;2.64;62.40;93971.69;1428536;39;20620;31
2021/03/06 11:33:58;;;;;;;;;;;;;;;2.77;62.35;93970.47;1107824;39;20109;31
2021/03/06 11:38:30;;;;;;;;;;;;;;;3.06;58.68;93965.78;1441766;39;20218;31
2021/03/06 11:39:45;;;;;;;;;;;;;;;2.90;59.25;93971.87;1430597;39;20458;31
2021/03/06 11:44:01;;;;;;;;;;;;;;;3.23;59.68;93957.44;1447511;39;20221;31
2021/03/06 11:45:15;;;;;;;;;;;;;;;3.30;62.12;93957.59;1416820;39;20312;31
2021/03/06 11:46:20;;;;;;;;;;;;;;;3.40;59.48;93957.00;1421808;39;21630;31
2021/03/06 11:47:25;;;;;;;;;;;;;;;3.52;60.59;93959.50;1407326;40;20247;31
2021/03/06 11:48:39;;;;;;;;;;;;;;;3.27;61.40;93947.72;1414360;39;20216;31
2021/03/06 11:49:53;;;;;;;;;;;;;;;3.44;61.13;93951.81;1411363;39;20325;31
2021/03/06 11:51:08;;;;;;;;;;;;;;;2.84;57.59;93952.13;1410173;40;20744;31
2021/03/06 11:52:12;;;;;;;;;;;;;;;2.91;60.07;93949.66;1401532;40;20248;31
2021/03/06 11:54:30;;;;;;;;;;;;;;;3.15;59.37;93947.84;1416729;39;20234;31
2021/03/06 11:56:49;;;;;;;;;;;;;;;3.09;58.17;93942.06;1437393;39;21003;31
2021/03/06 11:58:03;;;;;;;;;;;;;;;3.02;58.15;93939.28;1423543;39;20629;31
2021/03/06 12:00:25;;;;;;;;;;;;;;;3.17;59.31;93937.72;1445231;39;20226;31
2021/03/06 12:01:39;;;;;;;;;;;;;;;3.27;60.32;93942.44;1434884;39;20239;31
2021/03/06 12:02:53;;;;;;;;;;;;;;;3.37;59.33;93936.56;1428372;39;20384;31
2021/03/06 12:04:07;;;;;;;;;;;;;;;3.35;59.15;93930.88;1414871;39;21161;31
2021/03/06 12:05:08;;;;;;;;;;;;;;;3.47;59.87;93928.09;1044421;49;21235;-85
2021/03/06 12:06:12;;;;;;;;;;;;;;;3.14;56.05;93928.59;1307903;40;21155;31
2021/03/06 12:09:17;;;;;;;;;;;;;;;3.82;61.32;93923.75;1057031;56;20120;-85
2021/03/06 12:10:35;;;;;;;;;;;;;;;3.79;61.11;93920.72;1390439;39;20207;31
2021/03/06 12:11:50;;;;;;;;;;;;;;;3.84;58.48;93924.94;1409724;39;20254;31
2021/03/06 12:13:05;;;;;;;;;;;;;;;3.70;56.76;93917.53;1423006;39;20241;31
2021/03/06 12:14:21;;;;;;;;;;;;;;;3.87;55.28;93920.84;1421064;39;21184;31